Posadas, Argentina

4:52 PM ART on May 30, 2015 (GMT -0300)
Aguavista Club de Campo | | Change Station
CLOSE
Current Station
Personal Weather Station
Location: San Juan Del Paraná, ITAPúA
Elevation: 436 ft
Nearby Weather Stations

Elev 436 ft 27.31 °S, 55.98 °W | Updated 5 minutes ago

Scattered Clouds
Scattered Clouds
76.5 °F
Feels Like 78 °F
N
2.0
Wind Variable Wind from North
Gusts 2.0 mph

Today
High -- | Low -- °F
--% Chance of Precip.
Yesterday
High -- | Low -- °F
Precip. -- in
7:24 AM 5:57 PM
Waxing Gibbous, 92% visible
Pressure 29.95 in
Visibility 6.2 miles
Clouds Scattered Clouds 3500 ft
Heat Index 78 °F
Dew Point 56 °F
Humidity 49%
Rainfall 0.00 in
Snow Depth Not available.
UV 0.0 out of 12
Pollen Not available.
Air Quality Not available.
Flu Activity Not available.
METAR SARP 301900Z 14005KT 9999 SCT035 21/11 Q1014

More Conditions Fewer Conditions

Pressure 29.95 in
Visibility 6.2 miles
Clouds Scattered Clouds 3500 ft
Heat Index 78 °F
Dew Point 56 °F
Humidity 49%
Rainfall 0.00 in
Snow Depth Not available.
UV 0.0 out of 12
Pollen Not available.
Air Quality Not available.
Flu Activity Not available.
METAR SARP 301900Z 14005KT 9999 SCT035 21/11 Q1014

More Conditions Fewer Conditions

10-Day Weather Forecast

Almanac

Astronomy

May. 30, 2015 Rise Set
Actual Time
Civil Twilight
Nautical Twilight
Astronomical Twilight
Moon
Length of Visible Light
Length of Day
Tomorrow will be .
, % of the Moon is Illuminated

Today's Extremes

Country Highs Country Lows

Community

WunderPhotos

Upload Photos

1,825,605 photos uploaded!

WunderBlogs® & News

Nearby

Air Quality

  Air Quality AQ Index Pollutant
Not available.

Snow Depth

Station Depth Elevation

Earthquake Activity

City Distance Mag. Time & Date
Minimum magnitude displayed is 2.5.

Coastal Water Temperatures

Place Temperature

Stations

Nearby Weather Stations

Station Location Temp. Windchill Dew Point Humidity Wind Precip. Elev Updated Type